Time;durP1;ratioP1;P1;durP2;ratioP2;P2;SDS_P1;SDS_P2;PMS_P1;PMS_P2;Temp;Humidity;BMP_temperature;BMP_pressure;BME280_temperature;BME280_humidity;BME280_pressure;Samples;Min_cycle;Max_cycle;Signal;HPM_P1;HPM_P2
2021/05/08 07:45:30;;;;;;;20.48;5.47;;;486.40;1152.00;;;;;;4984333;22;20186;-72
2021/05/08 07:47:57;;;;;;;15.00;4.45;;;486.60;1152.00;;;;;;4956760;29;20031;-69
2021/05/08 07:50:26;;;;;;;11.18;4.70;;;486.80;1126.40;;;;;;4954268;29;20110;-72
2021/05/08 07:52:52;;;;;;;28.73;5.63;;;487.00;1100.80;;;;;;4956253;29;20134;-70
2021/05/08 07:55:18;;;;;;;204.68;21.13;;;487.10;1100.80;;;;;;4956257;29;20487;-70
2021/05/08 07:57:44;;;;;;;153.27;14.45;;;487.20;1100.80;;;;;;4956043;28;20100;-70
2021/05/08 08:00:12;;;;;;;26.00;6.75;;;512.00;1075.20;;;;;;4955848;28;20083;-71
2021/05/08 08:02:37;;;;;;;9.07;5.70;;;512.10;1024.00;;;;;;4956242;28;20023;-73
2021/05/08 08:05:06;;;;;;;7.00;4.60;;;512.30;998.40;;;;;;4956026;29;20049;-75
2021/05/08 08:07:32;;;;;;;5.65;4.82;;;512.40;998.40;;;;;;4956083;28;20023;-74
2021/05/08 08:09:58;;;;;;;17.17;5.30;;;512.40;972.80;;;;;;4956127;29;20098;-72
2021/05/08 08:12:24;;;;;;;18.45;6.28;;;512.40;972.80;;;;;;4938598;29;20024;-69
2021/05/08 08:14:49;;;;;;;27.63;6.57;;;512.50;972.80;;;;;;4955922;28;20045;-73
2021/05/08 08:17:15;;;;;;;27.80;5.68;;;512.50;998.40;;;;;;4956101;29;20058;-70
2021/05/08 08:19:43;;;;;;;34.92;7.10;;;512.60;998.40;;;;;;4956064;28;20027;-70
2021/05/08 08:22:09;;;;;;;34.88;6.38;;;512.80;998.40;;;;;;4955648;28;20059;-68
2021/05/08 08:24:35;;;;;;;85.63;8.93;;;512.90;998.40;;;;;;4955894;28;20035;-69
2021/05/08 08:27:00;;;;;;;48.35;6.82;;;537.60;1024.00;;;;;;4955718;28;20048;-70
2021/05/08 08:29:28;;;;;;;31.55;6.68;;;537.60;1024.00;;;;;;4955561;29;20078;-69
2021/05/08 08:31:54;;;;;;;62.47;8.52;;;537.90;998.40;;;;;;4955779;29;20047;-69
2021/05/08 08:34:20;;;;;;;35.70;6.28;;;538.00;1024.00;;;;;;4913773;29;20102;-69
2021/05/08 08:36:45;;;;;;;52.28;8.35;;;538.10;998.40;;;;;;4898421;29;20475;-69
2021/05/08 08:39:11;;;;;;;15.02;6.40;;;538.30;972.80;;;;;;4898606;29;20071;-69
2021/05/08 08:41:37;;;;;;;42.15;8.95;;;538.40;921.60;;;;;;4898642;29;20056;-69
2021/05/08 08:44:09;;;;;;;39.47;8.30;;;538.40;947.20;;;;;;4897699;29;20036;-68
2021/05/08 08:46:40;;;;;;;20.00;6.97;;;538.40;947.20;;;;;;4916254;29;20055;-67
2021/05/08 08:49:06;;;;;;;17.10;6.47;;;538.50;921.60;;;;;;4917736;29;20028;-68
2021/05/08 08:51:33;;;;;;;5.78;4.43;;;563.20;947.20;;;;;;4917316;29;20036;-69
2021/05/08 08:53:59;;;;;;;33.33;6.47;;;563.20;921.60;;;;;;4901227;29;20032;-68
2021/05/08 08:56:33;;;;;;;39.22;7.90;;;563.20;947.20;;;;;;4917527;29;20032;-68
2021/05/08 08:59:04;;;;;;;41.03;6.20;;;563.30;947.20;;;;;;4917323;29;20024;-68
2021/05/08 09:01:30;;;;;;;13.50;5.90;;;563.40;921.60;;;;;;4917638;29;20470;-68
2021/05/08 09:03:57;;;;;;;9.98;4.95;;;563.60;896.00;;;;;;4917470;29;20035;-68
2021/05/08 09:06:25;;;;;;;14.55;5.32;;;563.70;896.00;;;;;;4917065;29;20024;-68
2021/05/08 09:08:53;;;;;;;8.60;5.93;;;563.90;870.40;;;;;;4916935;29;20032;-68
2021/05/08 09:11:23;;;;;;;6.30;5.40;;;563.90;870.40;;;;;;4917394;29;20025;-68
2021/05/08 09:14:16;;;;;;;83.45;11.32;;;563.80;870.40;;;;;;4899877;29;20398;-69
2021/05/08 09:17:03;;;;;;;136.30;21.98;;;563.70;921.60;;;;;;4917366;29;20032;-68
2021/05/08 09:19:31;;;;;;;43.05;10.10;;;563.80;921.60;;;;;;4917060;29;20031;-66
2021/05/08 09:21:58;;;;;;;29.73;11.55;;;563.90;870.40;;;;;;4916511;29;20533;-67
2021/05/08 09:24:24;;;;;;;7.07;6.38;;;563.80;844.80;;;;;;4917448;29;20075;-68
2021/05/08 09:26:52;;;;;;;9.55;6.43;;;563.70;819.20;;;;;;4916926;29;20029;-66
2021/05/08 09:29:24;;;;;;;9.77;6.22;;;563.60;819.20;;;;;;4917062;29;20032;-65
2021/05/08 09:31:54;;;;;;;5.97;5.22;;;563.60;844.80;;;;;;4917031;29;20489;-65
2021/05/08 09:34:20;;;;;;;130.10;10.95;;;563.70;819.20;;;;;;4916669;29;20135;-67
2021/05/08 09:36:53;;;;;;;62.13;7.50;;;563.70;768.00;;;;;;4917031;29;20553;-66
2021/05/08 09:39:33;;;;;;;32.88;7.18;;;563.70;742.40;;;;;;4916950;29;20550;-67
2021/05/08 09:42:00;;;;;;;63.40;9.30;;;563.80;793.60;;;;;;4916706;29;20030;-66
2021/05/08 09:44:27;;;;;;;46.40;7.65;;;563.70;793.60;;;;;;4916788;29;20027;-66
2021/05/08 09:46:55;;;;;;;44.78;7.25;;;563.50;793.60;;;;;;4917093;29;20116;-66
2021/05/08 09:49:21;;;;;;;64.30;10.18;;;563.60;819.20;;;;;;4916869;29;20025;-65
2021/05/08 09:52:00;;;;;;;60.42;9.05;;;563.70;844.80;;;;;;4917039;29;20545;-68
2021/05/08 09:54:27;;;;;;;36.72;9.02;;;563.80;819.20;;;;;;4917342;29;20032;-69
2021/05/08 09:56:53;;;;;;;34.55;6.72;;;564.00;819.20;;;;;;4918495;29;20035;-66
2021/05/08 09:59:27;;;;;;;21.25;5.72;;;564.10;793.60;;;;;;4920137;29;20103;-66
2021/05/08 10:02:05;;;;;;;;;;;588.90;793.60;;;;;;4922069;29;20047;-66
2021/05/08 10:04:37;;;;;;;18.15;5.25;;;589.10;768.00;;;;;;4903349;29;20305;-65
2021/05/08 10:07:09;;;;;;;6.78;5.03;;;589.30;768.00;;;;;;4920206;29;20412;-66
2021/05/08 10:09:38;;;;;;;9.88;5.43;;;589.60;768.00;;;;;;4920096;29;20119;-68
2021/05/08 10:12:06;;;;;;;55.28;11.75;;;589.50;768.00;;;;;;4919964;29;20040;-68
2021/05/08 10:14:34;;;;;;;34.28;8.20;;;589.20;793.60;;;;;;4920376;29;20127;-68
2021/05/08 10:17:01;;;;;;;19.27;6.32;;;588.90;768.00;;;;;;4903131;29;20514;-68
2021/05/08 10:19:30;;;;;;;14.63;5.80;;;588.80;768.00;;;;;;4919903;29;20111;-68
2021/05/08 10:22:02;;;;;;;11.15;5.22;;;588.80;768.00;;;;;;4919348;29;20046;-68
2021/05/08 10:24:29;;;;;;;7.13;4.72;;;589.00;742.40;;;;;;4940323;29;20066;-68
2021/05/08 10:27:00;;;;;;;10.00;5.18;;;589.10;768.00;;;;;;4924196;29;20036;-68
2021/05/08 10:29:36;;;;;;;6.35;4.75;;;589.10;768.00;;;;;;4919497;29;20028;-68
2021/05/08 10:32:06;;;;;;;6.20;5.38;;;588.90;768.00;;;;;;4920011;29;20086;-68
2021/05/08 10:34:50;;;;;;;5.53;4.93;;;588.80;742.40;;;;;;4919317;29;20051;-68
2021/05/08 10:37:16;;;;;;;5.43;4.45;;;588.90;742.40;;;;;;4919838;29;20059;-68
2021/05/08 10:40:08;;;;;;;11.52;4.40;;;589.30;742.40;;;;;;4919654;29;20036;-68
2021/05/08 10:42:34;;;;;;;9.02;4.50;;;589.40;742.40;;;;;;4919995;29;20020;-68
2021/05/08 10:45:03;;;;;;;5.90;4.55;;;589.50;742.40;;;;;;4924612;29;20046;-68
2021/05/08 10:48:06;;;;;;;5.15;4.05;;;589.60;742.40;;;;;;4938685;29;20216;-68
2021/05/08 10:50:37;;;;;;;6.38;4.20;;;589.70;716.80;;;;;;4898311;29;20098;-67
2021/05/08 10:53:21;;;;;;;4.55;4.03;;;614.40;716.80;;;;;;4898689;29;20031;-66
2021/05/08 10:55:51;;;;;;;4.30;3.88;;;614.60;716.80;;;;;;4898916;29;20056;-65
2021/05/08 10:58:17;;;;;;;5.47;3.75;;;614.70;716.80;;;;;;4899060;29;20110;-66
2021/05/08 11:00:46;;;;;;;5.68;4.55;;;614.90;716.80;;;;;;4882667;29;20451;-66
2021/05/08 11:03:13;;;;;;;6.07;4.80;;;614.90;716.80;;;;;;4882788;29;20128;-66
2021/05/08 11:06:01;;;;;;;38.38;8.48;;;614.90;716.80;;;;;;4882490;29;20067;-70
2021/05/08 11:08:28;;;;;;;79.53;9.07;;;615.00;742.40;;;;;;4897913;29;20036;-68
2021/05/08 11:11:22;;;;;;;57.08;8.20;;;615.00;716.80;;;;;;4897927;29;20164;-68
2021/05/08 11:13:54;;;;;;;70.60;8.20;;;615.00;716.80;;;;;;4897657;29;20044;-68
2021/05/08 11:16:26;;;;;;;23.40;6.03;;;615.00;716.80;;;;;;4898472;29;20087;-67
2021/05/08 11:18:54;;;;;;;102.10;10.85;;;615.00;691.20;;;;;;4897875;29;20036;-66
2021/05/08 11:21:24;;;;;;;19.67;5.53;;;615.20;716.80;;;;;;4898129;29;20036;-69
2021/05/08 11:23:58;;;;;;;11.20;4.40;;;615.10;691.20;;;;;;4898014;29;20488;-67
2021/05/08 11:26:30;;;;;;;6.30;4.50;;;614.90;691.20;;;;;;4911363;29;20039;-67
2021/05/08 11:29:10;;;;;;;7.43;5.72;;;614.60;691.20;;;;;;4938435;29;20027;-68
2021/05/08 11:31:39;;;;;;;7.63;5.13;;;589.70;742.40;;;;;;4937763;29;20104;-68
2021/05/08 11:34:10;;;;;;;7.18;5.53;;;589.50;742.40;;;;;;4937482;29;20082;-68
2021/05/08 11:36:49;;;;;;;5.78;5.18;;;589.40;742.40;;;;;;4937377;29;20032;-66
2021/05/08 11:39:16;;;;;;;7.32;5.00;;;589.40;742.40;;;;;;4937854;29;20107;-68
2021/05/08 11:41:43;;;;;;;7.40;5.25;;;589.40;742.40;;;;;;4919716;29;20039;-68
2021/05/08 11:44:18;;;;;;;6.72;5.22;;;589.50;742.40;;;;;;4937308;29;20058;-68
2021/05/08 11:46:51;;;;;;;6.20;4.60;;;589.60;742.40;;;;;;4921566;29;20051;-68
2021/05/08 11:49:31;;;;;;;5.55;4.85;;;589.70;742.40;;;;;;4918261;29;20028;-68
2021/05/08 11:51:59;;;;;;;4.78;4.10;;;589.70;716.80;;;;;;4923479;29;20111;-68
2021/05/08 11:54:26;;;;;;;43.13;7.22;;;589.60;716.80;;;;;;4914544;29;20020;-68
2021/05/08 11:56:56;;;;;;;6.75;3.85;;;589.60;716.80;;;;;;4926748;29;20393;-68
2021/05/08 11:59:33;;;;;;;6.63;4.13;;;589.70;716.80;;;;;;4927456;29;20046;-69
2021/05/08 12:02:20;;;;;;;5.90;3.95;;;614.40;691.20;;;;;;4927272;29;20050;-69
2021/05/08 12:04:57;;;;;;;5.15;3.95;;;589.70;691.20;;;;;;4923650;29;20028;-68
2021/05/08 12:07:29;;;;;;;4.50;3.50;;;589.60;691.20;;;;;;4925424;29;20028;-68
2021/05/08 12:10:16;;;;;;;6.20;3.90;;;589.70;665.60;;;;;;4925675;29;20032;-69
2021/05/08 12:12:56;;;;;;;5.15;3.75;;;589.70;665.60;;;;;;4926831;29;20050;-68
2021/05/08 12:15:40;;;;;;;4.07;3.67;;;589.60;665.60;;;;;;4927109;29;20090;-69
2021/05/08 12:18:08;;;;;;;4.03;3.33;;;589.70;691.20;;;;;;4922975;29;20031;-69
2021/05/08 12:20:45;;;;;;;4.30;3.85;;;589.70;691.20;;;;;;4925549;29;20071;-69
2021/05/08 12:23:20;;;;;;;6.25;3.55;;;589.50;691.20;;;;;;4918648;29;20491;-69
2021/05/08 12:26:07;;;;;;;5.80;3.13;;;589.20;665.60;;;;;;4926517;29;20051;-67
2021/05/08 12:28:35;;;;;;;3.88;3.40;;;588.90;665.60;;;;;;4926662;29;20023;-68
2021/05/08 12:31:18;;;;;;;7.88;2.92;;;588.90;665.60;;;;;;4925726;29;20075;-64
2021/05/08 12:33:44;;;;;;;3.72;3.17;;;588.80;665.60;;;;;;4925441;29;20607;-65
2021/05/08 12:36:15;;;;;;;3.08;2.70;;;588.80;691.20;;;;;;4922532;29;20042;-66
2021/05/08 12:38:41;;;;;;;16.88;4.63;;;588.80;665.60;;;;;;4917492;29;20164;-63
2021/05/08 12:41:28;;;;;;;92.97;9.88;;;588.80;665.60;;;;;;4918636;29;20048;-63
2021/05/08 12:44:08;;;;;;;11.55;4.03;;;588.80;716.80;;;;;;4936419;29;20047;-65
2021/05/08 12:46:59;;;;;;;6.43;3.83;;;588.90;716.80;;;;;;4936480;29;20454;-66
2021/05/08 12:49:27;;;;;;;7.80;4.15;;;589.00;716.80;;;;;;4936527;29;20020;-65
2021/05/08 12:51:54;;;;;;;9.23;3.55;;;589.00;691.20;;;;;;4936741;29;20028;-66
2021/05/08 12:54:21;;;;;;;13.30;4.40;;;588.90;691.20;;;;;;4935973;29;20027;-64
2021/05/08 12:56:50;;;;;;;5.10;3.90;;;588.80;691.20;;;;;;4936469;29;20378;-65
2021/05/08 12:59:30;;;;;;;5.00;3.78;;;564.00;691.20;;;;;;4936110;29;20024;-65
2021/05/08 13:02:18;;;;;;;3.92;3.20;;;564.00;742.40;;;;;;4936093;29;20058;-65
2021/05/08 13:04:47;;;;;;;4.05;2.92;;;564.10;716.80;;;;;;4933107;29;20132;-65
2021/05/08 13:07:26;;;;;;;3.65;3.03;;;564.10;716.80;;;;;;4917457;29;20025;-67
2021/05/08 13:10:19;;;;;;;3.55;2.97;;;588.80;716.80;;;;;;4917444;29;20035;-67
2021/05/08 13:12:57;;;;;;;4.00;3.60;;;588.80;716.80;;;;;;4916845;29;20111;-66
2021/05/08 13:15:25;;;;;;;5.80;3.10;;;588.80;691.20;;;;;;4916858;29;20044;-66
2021/05/08 13:17:52;;;;;;;6.47;3.30;;;588.80;691.20;;;;;;4915877;29;20032;-66
2021/05/08 13:20:22;;;;;;;5.03;3.25;;;588.80;716.80;;;;;;4926294;29;20023;-64
2021/05/08 13:22:50;;;;;;;5.07;3.33;;;564.10;665.60;;;;;;4912344;29;20048;-63
2021/05/08 13:25:18;;;;;;;4.65;3.30;;;564.10;691.20;;;;;;4924858;29;20496;-66
2021/05/08 13:27:46;;;;;;;4.03;3.63;;;564.10;665.60;;;;;;4926254;29;20028;-65
2021/05/08 13:30:14;;;;;;;3.97;2.78;;;564.10;691.20;;;;;;4924657;29;20052;-67
2021/05/08 13:32:58;;;;;;;3.55;3.00;;;564.10;691.20;;;;;;4927741;29;20039;-64
2021/05/08 13:35:27;;;;;;;3.35;2.83;;;564.10;716.80;;;;;;4929737;29;20040;-66
2021/05/08 13:37:56;;;;;;;4.68;3.40;;;564.10;716.80;;;;;;4928888;29;20035;-66
2021/05/08 13:40:23;;;;;;;3.45;3.00;;;564.10;716.80;;;;;;4929038;29;20032;-67
2021/05/08 13:42:49;;;;;;;3.30;2.80;;;564.00;691.20;;;;;;4920155;29;20028;-67
2021/05/08 13:45:16;;;;;;;2.85;2.60;;;563.90;691.20;;;;;;4928157;29;20405;-66
2021/05/08 13:47:42;;;;;;;3.30;2.92;;;563.90;665.60;;;;;;4927788;29;20036;-68
2021/05/08 13:50:11;;;;;;;4.05;2.50;;;563.90;691.20;;;;;;4929363;29;20091;-65
2021/05/08 13:52:37;;;;;;;3.10;2.72;;;563.80;691.20;;;;;;4927319;29;20019;-67
2021/05/08 13:55:05;;;;;;;3.22;2.80;;;563.80;716.80;;;;;;4929371;29;20040;-65
2021/05/08 13:57:31;;;;;;;3.67;2.67;;;563.80;716.80;;;;;;4928345;29;20024;-67
2021/05/08 13:59:57;;;;;;;4.28;3.28;;;563.80;716.80;;;;;;4928146;29;20036;-66
2021/05/08 14:02:23;;;;;;;6.70;3.60;;;563.80;716.80;;;;;;4929508;29;20047;-66
2021/05/08 14:04:49;;;;;;;4.78;3.05;;;563.70;716.80;;;;;;4927983;29;20032;-67
2021/05/08 14:07:15;;;;;;;4.00;3.08;;;563.70;742.40;;;;;;4930540;29;20060;-67
2021/05/08 14:09:42;;;;;;;5.35;3.08;;;563.70;716.80;;;;;;4927120;29;20047;-66
2021/05/08 14:12:08;;;;;;;5.32;3.60;;;563.70;691.20;;;;;;4921396;29;20039;-65
2021/05/08 14:14:35;;;;;;;7.38;3.45;;;563.60;691.20;;;;;;4929283;29;20047;-66
2021/05/08 14:17:01;;;;;;;4.47;2.63;;;563.60;691.20;;;;;;4927715;29;20020;-65
2021/05/08 14:19:27;;;;;;;3.65;2.95;;;563.50;691.20;;;;;;4929478;29;20127;-64
2021/05/08 14:21:53;;;;;;;3.97;2.70;;;563.40;691.20;;;;;;4928532;29;20498;-67
2021/05/08 14:24:20;;;;;;;6.03;3.00;;;563.40;716.80;;;;;;4928918;29;20027;-65
2021/05/08 14:26:47;;;;;;;5.15;2.88;;;563.30;716.80;;;;;;4929525;29;20107;-66
2021/05/08 14:29:13;;;;;;;3.17;2.88;;;563.30;716.80;;;;;;4924689;29;20486;-66
2021/05/08 14:31:41;;;;;;;4.65;2.65;;;563.30;716.80;;;;;;4927553;29;20110;-66
2021/05/08 14:34:10;;;;;;;11.52;3.28;;;563.30;742.40;;;;;;4923281;29;20035;-67
2021/05/08 14:36:36;;;;;;;19.05;4.00;;;563.30;742.40;;;;;;4922537;29;20032;-66
2021/05/08 14:39:02;;;;;;;30.95;5.03;;;563.30;742.40;;;;;;4926828;29;20028;-72
2021/05/08 14:41:28;;;;;;;5.13;3.47;;;563.20;742.40;;;;;;4928141;29;20023;-70
2021/05/08 14:43:54;;;;;;;6.50;3.42;;;563.20;742.40;;;;;;4923020;29;20020;-63
2021/05/08 14:46:21;;;;;;;4.75;2.85;;;538.50;716.80;;;;;;4934431;29;20047;-66
2021/05/08 14:48:47;;;;;;;6.72;3.00;;;538.50;691.20;;;;;;4937201;29;20378;-71
2021/05/08 14:51:13;;;;;;;9.02;3.15;;;538.40;716.80;;;;;;4937283;29;20477;-62
2021/05/08 14:53:39;;;;;;;9.23;3.35;;;538.40;716.80;;;;;;4937327;29;20343;-70
2021/05/08 14:56:06;;;;;;;4.78;3.22;;;538.30;691.20;;;;;;4936909;29;20046;-70
2021/05/08 14:58:33;;;;;;;7.28;3.13;;;538.30;716.80;;;;;;4937254;29;20470;-69
2021/05/08 15:00:59;;;;;;;5.85;3.22;;;538.30;716.80;;;;;;4936658;29;20028;-69
2021/05/08 15:03:26;;;;;;;7.82;3.53;;;538.10;716.80;;;;;;4936817;29;20016;-68
2021/05/08 15:05:52;;;;;;;97.55;9.25;;;538.10;716.80;;;;;;4937134;29;20028;-68
2021/05/08 15:08:20;;;;;;;39.65;7.07;;;538.00;742.40;;;;;;4920348;29;20047;-67
2021/05/08 15:10:48;;;;;;;31.02;5.30;;;538.00;742.40;;;;;;4938538;29;20091;-67
2021/05/08 15:13:14;;;;;;;20.35;4.63;;;538.00;768.00;;;;;;4937983;29;20028;-67
2021/05/08 15:15:40;;;;;;;17.88;3.88;;;537.90;768.00;;;;;;4937656;29;20512;-68
2021/05/08 15:18:06;;;;;;;9.45;3.38;;;537.80;768.00;;;;;;4916976;29;20506;-68
2021/05/08 15:20:32;;;;;;;9.77;3.33;;;537.70;768.00;;;;;;4926020;29;20031;-67
2021/05/08 15:22:59;;;;;;;15.18;3.03;;;537.70;768.00;;;;;;4937619;29;20068;-68
2021/05/08 15:25:25;;;;;;;5.93;3.08;;;537.60;768.00;;;;;;4937715;29;20122;-68
2021/05/08 15:27:52;;;;;;;7.40;2.78;;;537.60;768.00;;;;;;4938160;29;20099;-68
2021/05/08 15:30:19;;;;;;;7.32;3.22;;;537.60;768.00;;;;;;4937624;29;20035;-68
2021/05/08 15:32:45;;;;;;;6.15;3.70;;;537.60;768.00;;;;;;4936891;29;20118;-68
2021/05/08 15:35:11;;;;;;;8.63;5.93;;;512.90;742.40;;;;;;4937129;29;20118;-67
2021/05/08 15:37:37;;;;;;;6.47;4.88;;;512.80;768.00;;;;;;4936783;29;20031;-68
2021/05/08 15:40:05;;;;;;;7.07;4.78;;;512.80;768.00;;;;;;4936340;29;20106;-67
2021/05/08 15:42:34;;;;;;;10.43;5.53;;;512.70;742.40;;;;;;4936445;29;20019;-67
2021/05/08 15:45:00;;;;;;;58.00;9.50;;;512.70;768.00;;;;;;4933404;29;20040;-67
2021/05/08 15:47:27;;;;;;;46.35;10.20;;;512.60;742.40;;;;;;4920937;29;20048;-67
2021/05/08 15:49:53;;;;;;;9.30;4.68;;;512.50;742.40;;;;;;4922845;29;20042;-68
2021/05/08 15:52:23;;;;;;;39.55;8.68;;;512.40;742.40;;;;;;4916150;29;20486;-68
2021/05/08 15:54:50;;;;;;;45.22;9.60;;;512.30;742.40;;;;;;4924265;29;20760;-68
2021/05/08 15:57:16;;;;;;;18.30;7.38;;;512.20;742.40;;;;;;4926115;29;20022;-68
2021/05/08 15:59:42;;;;;;;13.32;6.65;;;512.10;768.00;;;;;;4927482;29;20034;-68
2021/05/08 16:02:09;;;;;;;11.55;5.80;;;512.20;768.00;;;;;;4927245;29;20433;-68
2021/05/08 16:04:35;;;;;;;7.32;4.60;;;512.10;768.00;;;;;;4928227;29;20386;-68
2021/05/08 16:07:05;;;;;;;22.38;7.13;;;512.10;768.00;;;;;;4937124;29;20063;-68
2021/05/08 16:09:31;;;;;;;10.32;4.35;;;512.00;742.40;;;;;;4931009;29;20513;-67
2021/05/08 16:11:58;;;;;;;8.65;4.68;;;487.30;742.40;;;;;;4917894;29;20035;-68
2021/05/08 16:14:24;;;;;;;11.38;6.60;;;487.20;768.00;;;;;;4918178;29;20032;-68
2021/05/08 16:16:50;;;;;;;10.25;4.97;;;487.20;768.00;;;;;;4918317;29;20043;-67
2021/05/08 16:19:16;;;;;;;13.23;7.72;;;487.10;768.00;;;;;;4917893;29;20111;-67
2021/05/08 16:21:43;;;;;;;11.45;6.45;;;487.10;793.60;;;;;;4917136;29;20028;-67
2021/05/08 16:24:10;;;;;;;8.18;5.50;;;487.00;793.60;;;;;;4917808;29;20030;-68
2021/05/08 16:26:41;;;;;;;10.10;5.00;;;486.90;768.00;;;;;;4935827;29;20031;-67
2021/05/08 16:29:08;;;;;;;4.10;3.50;;;486.80;768.00;;;;;;4919597;29;20028;-67
2021/05/08 16:31:34;;;;;;;4.45;3.42;;;486.70;768.00;;;;;;4916409;29;20394;-67
2021/05/08 16:34:00;;;;;;;4.97;3.30;;;486.70;768.00;;;;;;4916381;29;20048;-67
2021/05/08 16:36:26;;;;;;;5.93;3.83;;;486.60;793.60;;;;;;4917481;29;20039;-67
2021/05/08 16:38:53;;;;;;;12.75;8.50;;;486.50;793.60;;;;;;4916829;29;20043;-67
2021/05/08 16:41:19;;;;;;;9.25;6.72;;;486.50;793.60;;;;;;4899414;29;20382;-67
2021/05/08 16:43:45;;;;;;;7.43;5.43;;;486.40;793.60;;;;;;4915866;29;20494;-68
2021/05/08 16:46:12;;;;;;;25.90;7.50;;;486.40;793.60;;;;;;4915988;29;20055;-67
2021/05/08 16:48:38;;;;;;;25.05;7.25;;;461.70;793.60;;;;;;4915825;29;20415;-67
2021/05/08 16:51:04;;;;;;;57.80;20.15;;;461.60;793.60;;;;;;4915765;29;20055;-68
2021/05/08 16:53:30;;;;;;;151.02;18.52;;;461.60;819.20;;;;;;4919203;29;20111;-67
2021/05/08 16:55:56;;;;;;;138.50;22.35;;;461.50;844.80;;;;;;4917634;29;20039;-67
2021/05/08 16:58:23;;;;;;;114.68;29.42;;;461.50;870.40;;;;;;4898921;29;20071;-70
2021/05/08 17:00:49;;;;;;;114.28;34.92;;;461.50;870.40;;;;;;4899113;29;20039;-67
2021/05/08 17:03:15;;;;;;;95.70;28.65;;;461.40;870.40;;;;;;4916045;29;20024;-66
2021/05/08 17:05:41;;;;;;;63.03;19.58;;;461.30;870.40;;;;;;4915230;29;20021;-67
2021/05/08 17:08:10;;;;;;;80.15;17.95;;;461.30;844.80;;;;;;4915909;29;20422;-68
2021/05/08 17:10:36;;;;;;;71.60;19.17;;;461.30;844.80;;;;;;4913286;29;20021;-68
2021/05/08 17:13:02;;;;;;;79.85;18.27;;;461.20;870.40;;;;;;4915799;29;20027;-68
2021/05/08 17:15:28;;;;;;;61.50;15.65;;;461.10;896.00;;;;;;4915907;29;20040;-67
2021/05/08 17:17:54;;;;;;;126.45;25.85;;;461.10;896.00;;;;;;4915659;29;20083;-67
2021/05/08 17:20:21;;;;;;;79.78;20.33;;;461.00;896.00;;;;;;4916058;29;20034;-67
2021/05/08 17:22:47;;;;;;;67.90;19.20;;;460.90;921.60;;;;;;4916022;29;20108;-68
2021/05/08 17:25:14;;;;;;;74.30;17.55;;;460.90;921.60;;;;;;4915941;29;20021;-67
2021/05/08 17:27:41;;;;;;;50.85;13.35;;;460.80;921.60;;;;;;4912975;29;20111;-67
2021/05/08 17:30:08;;;;;;;38.60;14.65;;;460.80;921.60;;;;;;4915704;29;20080;-67
2021/05/08 17:32:34;;;;;;;55.60;18.30;;;436.10;896.00;;;;;;4915815;29;20025;-67
2021/05/08 17:35:00;;;;;;;62.45;22.35;;;436.00;921.60;;;;;;4915829;29;20036;-67
2021/05/08 17:37:26;;;;;;;55.78;24.48;;;436.00;947.20;;;;;;4916058;29;20071;-67
2021/05/08 17:39:53;;;;;;;46.30;24.98;;;435.90;947.20;;;;;;4916955;29;20036;-67
2021/05/08 17:42:19;;;;;;;48.78;25.77;;;435.80;972.80;;;;;;4916780;29;20116;-67
2021/05/08 17:44:45;;;;;;;45.80;25.63;;;435.70;972.80;;;;;;4916804;29;20028;-67
2021/05/08 17:47:14;;;;;;;41.50;22.02;;;435.70;998.40;;;;;;4915686;29;20036;-68
2021/05/08 17:49:41;;;;;;;37.10;21.63;;;435.60;998.40;;;;;;4916885;29;20036;-67
2021/05/08 17:52:08;;;;;;;27.73;17.67;;;435.50;998.40;;;;;;4917379;29;20024;-67
2021/05/08 17:54:37;;;;;;;23.27;15.90;;;435.40;998.40;;;;;;4916748;29;20032;-67
2021/05/08 17:57:04;;;;;;;22.48;14.95;;;435.40;1024.00;;;;;;4916873;29;20032;-68
2021/05/08 17:59:30;;;;;;;14.00;11.48;;;435.30;1024.00;;;;;;4916860;29;20119;-67
2021/05/08 18:02:00;;;;;;;15.30;10.35;;;435.30;1049.60;;;;;;4916990;29;20106;-68
2021/05/08 18:04:26;;;;;;;18.88;11.73;;;435.20;1049.60;;;;;;4916574;29;20024;-67
2021/05/08 18:06:52;;;;;;;24.38;14.05;;;410.50;1049.60;;;;;;4916623;29;20040;-69
2021/05/08 18:09:19;;;;;;;23.63;15.45;;;410.40;1075.20;;;;;;4915476;29;20071;-67
2021/05/08 18:11:47;;;;;;;32.80;19.30;;;410.40;1075.20;;;;;;4915452;29;20498;-67
2021/05/08 18:14:13;;;;;;;42.13;27.08;;;410.30;1075.20;;;;;;4912994;29;20032;-68
2021/05/08 18:16:39;;;;;;;66.22;39.30;;;410.30;1075.20;;;;;;4915888;29;20032;-67
2021/05/08 18:19:05;;;;;;;85.53;50.42;;;410.10;1100.80;;;;;;4919167;29;20076;-63
2021/05/08 18:21:31;;;;;;;105.85;61.55;;;410.10;1126.40;;;;;;4916155;29;20030;-69
2021/05/08 18:23:57;;;;;;;115.18;63.90;;;410.00;1126.40;;;;;;4918171;29;20024;-68
2021/05/08 18:26:25;;;;;;;120.97;72.40;;;410.00;1254.40;;;;;;4918815;29;20494;-69
2021/05/08 18:28:51;;;;;;;120.55;72.95;;;410.00;1177.60;;;;;;4918444;29;20024;-69
2021/05/08 18:31:18;;;;;;;115.50;73.70;;;409.90;1177.60;;;;;;4918375;29;20052;-69
2021/05/08 18:33:44;;;;;;;113.47;72.80;;;409.90;1152.00;;;;;;4918633;29;20020;-69
2021/05/08 18:36:10;;;;;;;115.00;71.13;;;409.80;1177.60;;;;;;4918098;29;20032;-69
2021/05/08 18:38:36;;;;;;;116.05;71.63;;;409.70;1177.60;;;;;;4918113;29;20095;-69
2021/05/08 18:41:06;;;;;;;105.93;63.28;;;409.70;1177.60;;;;;;4918492;29;20530;-69
2021/05/08 18:43:33;;;;;;;94.13;58.53;;;409.60;1203.20;;;;;;4915368;29;20028;-69
2021/05/08 18:45:59;;;;;;;98.03;60.28;;;409.60;1203.20;;;;;;4917838;29;20455;-69
2021/05/08 18:48:26;;;;;;;96.63;58.72;;;384.80;1203.20;;;;;;4918132;29;20486;-69
2021/05/08 18:50:52;;;;;;;109.32;64.95;;;384.80;1203.20;;;;;;4919273;29;20075;-70
2021/05/08 18:53:18;;;;;;;110.70;68.35;;;384.80;1203.20;;;;;;4919621;29;20079;-71
2021/05/08 18:55:44;;;;;;;118.97;73.53;;;384.70;1228.80;;;;;;4919520;29;20036;-73
2021/05/08 18:58:10;;;;;;;118.00;72.93;;;384.70;1228.80;;;;;;4919288;29;20036;-76
2021/05/08 19:00:37;;;;;;;128.98;75.13;;;384.60;1228.80;;;;;;4919458;29;20107;-68
2021/05/08 19:03:04;;;;;;;135.55;78.10;;;384.50;1228.80;;;;;;4917702;29;20024;-67
2021/05/08 19:05:30;;;;;;;128.95;75.45;;;384.50;1254.40;;;;;;4920257;29;20028;-66
2021/05/08 19:07:56;;;;;;;135.68;75.97;;;384.50;1254.40;;;;;;4919279;29;20497;-67
2021/05/08 19:10:23;;;;;;;132.05;74.95;;;384.40;1280.00;;;;;;4918835;29;20032;-67
2021/05/08 19:12:50;;;;;;;143.02;78.95;;;384.40;1280.00;;;;;;4918896;29;20382;-65
2021/05/08 19:15:16;;;;;;;140.25;76.63;;;384.40;1280.00;;;;;;4901742;29;20052;-73
2021/05/08 19:17:43;;;;;;;148.55;80.80;;;384.20;1280.00;;;;;;4918753;29;20020;-69
2021/05/08 19:20:10;;;;;;;159.27;86.22;;;384.20;1305.60;;;;;;4929151;29;20030;-67
2021/05/08 19:22:36;;;;;;;187.05;96.38;;;384.20;1305.60;;;;;;4937860;29;20024;-71
2021/05/08 19:25:03;;;;;;;210.98;104.18;;;384.20;1305.60;;;;;;4937039;29;20032;-72
2021/05/08 19:27:28;;;;;;;236.93;118.32;;;384.10;1305.60;;;;;;4921059;29;20023;-68
2021/05/08 19:29:54;;;;;;;245.25;121.20;;;384.10;1305.60;;;;;;4937037;29;20083;-70
2021/05/08 19:32:20;;;;;;;262.67;127.03;;;384.00;1331.20;;;;;;4936961;29;20040;-69
2021/05/08 19:34:52;;;;;;;244.02;125.25;;;384.00;1331.20;;;;;;4920850;29;20039;-69
2021/05/08 19:37:19;;;;;;;248.65;128.10;;;359.30;1331.20;;;;;;4938076;29;20474;-69
2021/05/08 19:39:45;;;;;;;234.27;127.18;;;359.30;1356.80;;;;;;4937782;29;20473;-68
2021/05/08 19:42:11;;;;;;;228.02;127.85;;;359.30;1356.80;;;;;;4937809;29;20032;-68
2021/05/08 19:44:36;;;;;;;223.20;126.90;;;359.20;1356.80;;;;;;4938396;29;20027;-69
2021/05/08 19:47:03;;;;;;;231.40;131.25;;;359.20;1356.80;;;;;;4937633;29;20429;-69
2021/05/08 19:49:29;;;;;;;237.73;137.70;;;359.20;1356.80;;;;;;4937689;29;20382;-69
2021/05/08 19:51:55;;;;;;;239.02;139.07;;;359.10;1356.80;;;;;;4937787;29;20034;-69
2021/05/08 19:54:21;;;;;;;245.75;136.52;;;359.10;1382.40;;;;;;4937436;29;20378;-69
2021/05/08 19:56:47;;;;;;;233.98;131.15;;;359.10;1382.40;;;;;;4937513;29;20047;-69
2021/05/08 19:59:12;;;;;;;237.68;133.15;;;359.00;1408.00;;;;;;4937652;29;20099;-69
2021/05/08 20:01:38;;;;;;;222.35;128.07;;;359.00;1408.00;;;;;;4937505;29;20382;-68
2021/05/08 20:04:04;;;;;;;234.90;130.13;;;359.00;1408.00;;;;;;4937576;29;20024;-68
2021/05/08 20:06:31;;;;;;;227.52;127.22;;;358.90;1433.60;;;;;;4937556;29;20042;-69